Time;durP1;ratioP1;P1;durP2;ratioP2;P2;SDS_P1;SDS_P2;PMS_P1;PMS_P2;Temp;Humidity;BMP_temperature;BMP_pressure;BME280_temperature;BME280_humidity;BME280_pressure;Samples;Min_cycle;Max_cycle;Signal;HPM_P1;HPM_P2
2021/06/19 00:01:56;;;;;;;;;;;;;;;18.01;61.96;100625.97;4937294;29;20418;-93
2021/06/19 00:04:23;;;;;;;;;;;;;;;18.01;61.98;100635.09;4953636;29;19961;-82
2021/06/19 00:06:48;;;;;;;;;;;;;;;17.95;62.08;100625.34;4954219;29;19966;-89
2021/06/19 00:09:14;;;;;;;;;;;;;;;17.88;62.43;100629.75;4954737;29;19950;-92
2021/06/19 00:11:40;;;;;;;;;;;;;;;17.81;62.69;100631.09;4954169;29;19960;-93
2021/06/19 00:14:06;;;;;;;;;;;;;;;17.78;62.79;100633.69;4920588;29;19922;-93
2021/06/19 00:16:32;;;;;;;;;;;;;;;17.74;62.79;100630.72;4918322;29;19923;-82
2021/06/19 00:19:01;;;;;;;;;;;;;;;17.70;62.97;100624.25;4954343;29;19985;-82
2021/06/19 00:21:27;;;;;;;;;;;;;;;17.68;63.20;100631.22;4937044;29;19923;-83
2021/06/19 00:23:53;;;;;;;;;;;;;;;17.69;62.91;100630.91;4936934;29;20311;-82
2021/06/19 00:26:19;;;;;;;;;;;;;;;17.70;62.99;100631.72;4953992;29;19922;-82
2021/06/19 00:28:45;;;;;;;;;;;;;;;17.69;62.94;100633.69;4953883;29;20036;-92
2021/06/19 00:31:10;;;;;;;;;;;;;;;17.72;62.54;100629.47;4921119;29;20273;-91
2021/06/19 00:33:36;;;;;;;;;;;;;;;17.75;62.78;100631.56;4937448;29;19922;-82
2021/06/19 00:36:02;;;;;;;;;;;;;;;17.77;62.05;100637.59;4936911;29;19945;-82
2021/06/19 00:38:29;;;;;;;;;;;;;;;17.81;61.88;100628.31;4954139;29;19957;-83
2021/06/19 00:40:55;;;;;;;;;;;;;;;17.82;61.95;100634.66;4955579;28;20057;-93
2021/06/19 00:43:21;;;;;;;;;;;;;;;17.81;61.75;100636.63;4957437;29;19927;-82
2021/06/19 00:45:47;;;;;;;;;;;;;;;17.83;61.61;100636.28;4940730;29;20046;-87
2021/06/19 00:48:13;;;;;;;;;;;;;;;17.84;61.56;100640.66;4957691;29;19929;-92
2021/06/19 00:50:40;;;;;;;;;;;;;;;17.81;62.02;100635.78;4945742;29;19929;-83
2021/06/19 00:53:06;;;;;;;;;;;;;;;17.74;62.32;100652.84;4940154;29;19929;-94
2021/06/19 00:55:32;;;;;;;;;;;;;;;17.72;62.50;100644.09;4957233;29;19923;-82
2021/06/19 00:58:02;;;;;;;;;;;;;;;17.66;62.93;100642.63;4957463;29;19929;-82
2021/06/19 01:00:28;;;;;;;;;;;;;;;17.64;62.89;100644.09;4957562;29;19926;-92
2021/06/19 01:02:58;;;;;;;;;;;;;;;17.59;62.94;100643.13;4957243;29;19923;-93
2021/06/19 01:05:25;;;;;;;;;;;;;;;17.59;63.06;100642.31;4957231;29;20017;-91
2021/06/19 01:07:51;;;;;;;;;;;;;;;17.58;63.23;100638.75;4957217;29;19984;-82
2021/06/19 01:10:17;;;;;;;;;;;;;;;17.54;63.58;100643.28;4956980;29;19933;-82
2021/06/19 01:12:45;;;;;;;;;;;;;;;17.49;63.76;100643.47;4956665;29;19922;-82
2021/06/19 01:15:12;;;;;;;;;;;;;;;17.47;63.63;100644.94;4940171;29;20389;-83
2021/06/19 01:17:38;;;;;;;;;;;;;;;17.44;63.93;100648.34;4956914;29;20012;-87
2021/06/19 01:20:07;;;;;;;;;;;;;;;17.44;64.05;100640.06;4940053;29;19922;-92
2021/06/19 01:22:33;;;;;;;;;;;;;;;17.46;63.87;100646.09;4956818;29;19929;-91
2021/06/19 01:25:00;;;;;;;;;;;;;;;17.49;63.98;100646.25;4957000;29;19922;-83
2021/06/19 01:27:30;;;;;;;;;;;;;;;17.54;63.71;100648.00;4953435;29;19922;-88
2021/06/19 01:30:01;;;;;;;;;;;;;;;17.59;63.75;100645.09;4956909;29;19956;-82
2021/06/19 01:32:29;;;;;;;;;;;;;;;17.61;63.59;100656.63;4956569;29;19932;-82
2021/06/19 01:34:55;;;;;;;;;;;;;;;17.59;63.66;100651.44;4956665;29;19955;-93
2021/06/19 01:37:21;;;;;;;;;;;;;;;17.58;63.92;100663.63;4956322;29;20307;-90
2021/06/19 01:39:47;;;;;;;;;;;;;;;17.61;63.81;100657.47;4956457;29;19933;-82
2021/06/19 01:42:13;;;;;;;;;;;;;;;17.71;63.58;100661.81;4956443;29;20319;-90
2021/06/19 01:44:39;;;;;;;;;;;;;;;17.76;63.51;100658.91;4925781;29;19923;-82
2021/06/19 01:47:06;;;;;;;;;;;;;;;17.83;62.94;100652.88;4956387;29;19922;-83
2021/06/19 01:49:35;;;;;;;;;;;;;;;17.87;62.83;100653.84;4956224;29;19922;-92
2021/06/19 01:52:02;;;;;;;;;;;;;;;17.90;62.96;100652.38;4956061;28;19926;-92
2021/06/19 01:54:37;;;;;;;;;;;;;;;17.96;62.84;100654.63;4956544;29;19930;-84
2021/06/19 01:57:07;;;;;;;;;;;;;;;18.01;62.53;100650.88;4956223;29;20288;-93
2021/06/19 01:59:33;;;;;;;;;;;;;;;18.03;62.82;100656.91;4938983;29;20378;-82
2021/06/19 02:01:59;;;;;;;;;;;;;;;18.05;63.13;100658.19;4938782;29;19922;-83
2021/06/19 02:04:26;;;;;;;;;;;;;;;18.08;62.86;100660.31;4938863;29;19922;-82
2021/06/19 02:06:52;;;;;;;;;;;;;;;18.12;62.91;100665.19;4938984;29;19977;-82
2021/06/19 02:09:18;;;;;;;;;;;;;;;18.17;63.05;100667.75;4954113;29;19927;-90
2021/06/19 02:11:44;;;;;;;;;;;;;;;18.19;63.22;100657.97;4919766;29;19922;-90
2021/06/19 02:14:15;;;;;;;;;;;;;;;18.26;62.87;100668.53;4936814;29;19923;-82
2021/06/19 02:16:41;;;;;;;;;;;;;;;18.29;62.95;100663.16;4938940;29;19922;-82
2021/06/19 02:19:08;;;;;;;;;;;;;;;18.33;62.86;100670.78;4955655;29;19960;-85
2021/06/19 02:21:33;;;;;;;;;;;;;;;18.39;62.81;100670.28;4955566;29;19966;-82
2021/06/19 02:24:00;;;;;;;;;;;;;;;18.42;62.64;100672.38;4938355;29;19977;-81
2021/06/19 02:26:25;;;;;;;;;;;;;;;18.45;62.39;100680.03;4955668;29;19922;-92
2021/06/19 02:28:53;;;;;;;;;;;;;;;18.50;62.34;100674.28;4955487;29;20024;-82
2021/06/19 02:31:20;;;;;;;;;;;;;;;18.54;62.22;100680.81;4955240;29;20418;-82
2021/06/19 02:33:48;;;;;;;;;;;;;;;18.59;62.15;100674.25;4955427;29;19927;-82
2021/06/19 02:36:14;;;;;;;;;;;;;;;18.62;62.36;100675.56;4955460;29;19922;-82
2021/06/19 02:38:40;;;;;;;;;;;;;;;18.68;62.12;100679.75;4955235;29;19945;-82
2021/06/19 02:41:06;;;;;;;;;;;;;;;18.75;62.30;100680.06;4955582;29;19922;-82
2021/06/19 02:43:32;;;;;;;;;;;;;;;18.82;62.12;100674.00;4955455;29;20530;-82
2021/06/19 02:45:59;;;;;;;;;;;;;;;18.90;62.28;100679.47;4935051;29;19923;-82
2021/06/19 02:48:26;;;;;;;;;;;;;;;18.93;61.80;100678.00;4936109;29;20411;-82
2021/06/19 02:50:52;;;;;;;;;;;;;;;18.99;61.44;100673.88;4935918;29;19927;-82
2021/06/19 02:53:18;;;;;;;;;;;;;;;19.05;61.41;100668.97;4936343;29;19929;-81
2021/06/19 02:55:44;;;;;;;;;;;;;;;19.08;60.83;100674.66;4954869;29;19957;-83
2021/06/19 02:58:12;;;;;;;;;;;;;;;19.13;60.92;100668.06;4955188;29;20395;-82
2021/06/19 03:00:39;;;;;;;;;;;;;;;19.18;61.08;100667.88;4955011;29;19985;-82
2021/06/19 03:03:05;;;;;;;;;;;;;;;19.27;60.83;100679.72;4954610;28;19922;-92
2021/06/19 03:05:31;;;;;;;;;;;;;;;19.30;59.88;100676.25;4935112;29;19930;-82
2021/06/19 03:07:57;;;;;;;;;;;;;;;19.36;59.22;100669.34;4935811;29;19974;-89
2021/06/19 03:10:25;;;;;;;;;;;;;;;19.44;59.50;100679.56;4935571;29;19926;-82
2021/06/19 03:12:51;;;;;;;;;;;;;;;19.51;60.34;100669.91;4915065;29;19923;-82
2021/06/19 03:15:17;;;;;;;;;;;;;;;19.54;59.60;100670.03;4920430;29;19923;-92
2021/06/19 03:17:43;;;;;;;;;;;;;;;19.61;59.66;100669.47;4935592;29;19977;-93
2021/06/19 03:20:11;;;;;;;;;;;;;;;19.66;59.45;100672.88;4934422;29;19922;-93
2021/06/19 03:22:43;;;;;;;;;;;;;;;19.70;59.54;100673.81;4935466;29;19930;-82
2021/06/19 03:25:09;;;;;;;;;;;;;;;19.76;59.70;100670.81;4935280;29;20336;-82
2021/06/19 03:27:36;;;;;;;;;;;;;;;19.82;59.82;100675.00;4935237;29;20380;-82
2021/06/19 03:30:02;;;;;;;;;;;;;;;19.88;59.40;100673.66;4934344;29;19930;-83
2021/06/19 03:32:30;;;;;;;;;;;;;;;19.93;58.92;100674.25;4935041;29;19929;-82
2021/06/19 03:34:56;;;;;;;;;;;;;;;20.01;59.20;100666.97;4935521;29;20312;-83
2021/06/19 03:37:22;;;;;;;;;;;;;;;20.06;59.06;100672.28;4924524;29;19923;-82
2021/06/19 03:39:50;;;;;;;;;;;;;;;20.14;59.24;100668.63;4931917;29;19927;-83
2021/06/19 03:42:15;;;;;;;;;;;;;;;20.23;58.84;100678.78;4935544;29;19985;-93
2021/06/19 03:44:45;;;;;;;;;;;;;;;20.27;59.23;100680.56;4935250;29;20021;-82
2021/06/19 03:47:11;;;;;;;;;;;;;;;20.36;58.39;100678.50;4931451;29;19923;-83
2021/06/19 03:52:26;;;;;;;;;;;;;;;20.49;58.03;100675.69;4933216;29;19944;-92
2021/06/19 03:54:53;;;;;;;;;;;;;;;20.53;57.72;100671.09;4923628;29;19923;-92
2021/06/19 03:57:25;;;;;;;;;;;;;;;20.58;57.46;100680.00;4898528;29;19929;-82
2021/06/19 03:59:53;;;;;;;;;;;;;;;20.62;56.02;100677.34;4898612;29;19922;-92
2021/06/19 04:02:19;;;;;;;;;;;;;;;20.69;56.43;100682.31;4898308;29;19930;-83
2021/06/19 04:04:45;;;;;;;;;;;;;;;20.73;56.10;100681.31;4914163;29;19922;-88
2021/06/19 04:07:11;;;;;;;;;;;;;;;20.81;56.77;100677.56;4898122;29;20285;-88
2021/06/19 04:09:37;;;;;;;;;;;;;;;20.91;56.96;100681.06;4930638;29;19934;-92
2021/06/19 04:12:03;;;;;;;;;;;;;;;20.96;57.03;100672.44;4925706;29;19946;-82
2021/06/19 04:14:29;;;;;;;;;;;;;;;21.00;55.89;100684.50;4917815;29;19961;-83
2021/06/19 04:16:55;;;;;;;;;;;;;;;21.07;55.39;100681.94;4935010;29;19961;-83
2021/06/19 04:19:21;;;;;;;;;;;;;;;21.14;56.03;100690.50;4936486;29;19954;-82
2021/06/19 04:21:47;;;;;;;;;;;;;;;21.21;54.66;100689.91;4936587;29;19929;-82
2021/06/19 04:24:13;;;;;;;;;;;;;;;21.27;54.99;100683.75;4938215;29;20367;-83
2021/06/19 04:26:39;;;;;;;;;;;;;;;21.35;54.73;100687.56;4937463;29;19923;-82
2021/06/19 04:29:06;;;;;;;;;;;;;;;21.41;53.65;100686.16;4938637;29;20464;-93
2021/06/19 04:31:32;;;;;;;;;;;;;;;21.47;53.09;100678.38;4937270;29;19922;-82
2021/06/19 04:36:27;;;;;;;;;;;;;;;21.64;53.73;100688.41;4938139;29;19970;-83
2021/06/19 04:38:54;;;;;;;;;;;;;;;21.67;52.11;100694.06;4938101;29;20414;-82
2021/06/19 04:46:15;;;;;;;;;;;;;;;21.88;52.21;100684.69;4917927;29;19923;-85
2021/06/19 04:48:41;;;;;;;;;;;;;;;21.91;52.21;100687.56;4902059;29;20002;-85
2021/06/19 04:51:06;;;;;;;;;;;;;;;22.00;51.56;100681.84;4919658;29;20057;-85
2021/06/19 04:53:32;;;;;;;;;;;;;;;22.13;51.71;100686.19;4937373;29;19930;-85
2021/06/19 04:56:01;;;;;;;;;;;;;;;22.18;51.14;100680.34;4920669;29;19934;-87
2021/06/19 04:58:27;;;;;;;;;;;;;;;22.28;50.33;100684.59;4937706;29;19923;-84
2021/06/19 05:00:53;;;;;;;;;;;;;;;22.39;48.61;100685.69;4937658;29;19929;-85
2021/06/19 05:03:39;;;;;;;;;;;;;;;22.44;47.31;100679.84;4937607;29;19923;-89
2021/06/19 05:08:40;;;;;;;;;;;;;;;22.55;47.22;100682.06;4916424;29;19927;-84
2021/06/19 05:11:06;;;;;;;;;;;;;;;22.61;46.63;100677.84;4900455;29;19922;-83
2021/06/19 05:13:32;;;;;;;;;;;;;;;22.66;46.08;100681.19;4916476;29;19929;-93
2021/06/19 05:15:58;;;;;;;;;;;;;;;22.72;47.17;100676.94;4916579;29;20074;-93
2021/06/19 05:18:24;;;;;;;;;;;;;;;22.78;46.09;100660.75;4916791;29;19975;-91
2021/06/19 05:20:50;;;;;;;;;;;;;;;22.82;45.12;100661.63;4901530;29;19946;-85
2021/06/19 05:23:18;;;;;;;;;;;;;;;22.88;44.87;100673.28;4900693;29;19982;-85
2021/06/19 05:25:44;;;;;;;;;;;;;;;22.96;44.87;100673.13;4900724;29;19999;-83
2021/06/19 05:28:12;;;;;;;;;;;;;;;23.04;46.04;100662.94;4917552;29;19930;-85
2021/06/19 05:30:38;;;;;;;;;;;;;;;23.08;44.09;100666.63;4917315;29;19927;-86
2021/06/19 05:33:06;;;;;;;;;;;;;;;23.14;44.83;100654.00;4916969;29;19930;-85
2021/06/19 05:38:03;;;;;;;;;;;;;;;23.29;45.47;100669.06;4921660;29;20411;-85
2021/06/19 05:40:29;;;;;;;;;;;;;;;23.36;44.39;100671.22;4920159;29;19922;-85
2021/06/19 05:42:55;;;;;;;;;;;;;;;23.46;45.72;100673.41;4918043;29;20416;-86
2021/06/19 05:45:21;;;;;;;;;;;;;;;23.49;44.24;100667.09;4918438;29;19923;-86
2021/06/19 05:47:48;;;;;;;;;;;;;;;23.52;43.99;100659.97;4935599;29;19926;-81
2021/06/19 05:50:14;;;;;;;;;;;;;;;23.54;43.46;100663.19;4944246;29;19926;-81
2021/06/19 05:52:41;;;;;;;;;;;;;;;23.57;43.65;100662.47;4955916;28;19922;-81
2021/06/19 05:55:08;;;;;;;;;;;;;;;23.68;44.20;100655.94;4955791;28;19926;-81
2021/06/19 05:57:36;;;;;;;;;;;;;;;23.78;43.60;100662.91;4942309;29;19923;-81
2021/06/19 06:00:03;;;;;;;;;;;;;;;23.84;43.48;100660.59;4935518;29;20380;-81
2021/06/19 06:02:41;;;;;;;;;;;;;;;23.91;42.68;100650.41;4935063;29;19929;-81
2021/06/19 06:05:10;;;;;;;;;;;;;;;23.93;43.29;100652.81;4938715;29;19929;-80
2021/06/19 06:07:36;;;;;;;;;;;;;;;23.99;43.34;100656.91;4935398;29;20381;-80
2021/06/19 06:10:03;;;;;;;;;;;;;;;24.05;42.29;100658.22;4932802;29;19930;-87
2021/06/19 06:12:29;;;;;;;;;;;;;;;24.15;42.61;100654.81;4942749;29;19937;-86
2021/06/19 06:14:55;;;;;;;;;;;;;;;24.20;43.05;100655.69;4954018;29;19923;-86
2021/06/19 06:17:21;;;;;;;;;;;;;;;24.23;41.38;100652.13;4953686;29;19973;-82
2021/06/19 06:19:47;;;;;;;;;;;;;;;24.31;42.37;100649.09;4953179;29;19977;-81
2021/06/19 06:22:12;;;;;;;;;;;;;;;24.39;44.15;100650.00;4953273;29;19922;-84
2021/06/19 06:24:39;;;;;;;;;;;;;;;24.41;40.58;100653.28;4953369;29;19934;-85
2021/06/19 06:27:05;;;;;;;;;;;;;;;24.47;41.86;100649.00;4939300;29;19922;-89
2021/06/19 06:29:31;;;;;;;;;;;;;;;24.50;41.24;100656.63;4951950;29;19965;-88
2021/06/19 06:31:57;;;;;;;;;;;;;;;24.49;40.15;100651.41;4951577;29;19926;-88
2021/06/19 06:34:26;;;;;;;;;;;;;;;24.49;40.58;100646.63;4953064;29;20407;-81
2021/06/19 06:36:52;;;;;;;;;;;;;;;24.47;40.91;100640.59;4953096;29;20388;-87
2021/06/19 06:39:20;;;;;;;;;;;;;;;24.57;42.32;100647.56;4955194;28;19922;-92
2021/06/19 06:41:46;;;;;;;;;;;;;;;24.64;42.33;100649.66;4951618;29;19922;-88
2021/06/19 06:44:12;;;;;;;;;;;;;;;24.70;41.21;100643.34;4953306;29;19964;-79
2021/06/19 06:46:38;;;;;;;;;;;;;;;24.82;42.76;100647.91;4953235;29;20384;-80
2021/06/19 06:49:05;;;;;;;;;;;;;;;24.84;40.75;100643.56;4953271;28;19919;-88
2021/06/19 06:51:34;;;;;;;;;;;;;;;24.88;40.73;100643.59;4936167;29;19933;-90
2021/06/19 06:54:01;;;;;;;;;;;;;;;24.93;41.45;100637.66;4951261;29;19937;-88
2021/06/19 06:56:26;;;;;;;;;;;;;;;24.98;42.01;100640.16;4951321;29;20380;-80
2021/06/19 06:58:53;;;;;;;;;;;;;;;25.06;42.56;100636.25;4953095;29;19929;-79
2021/06/19 07:01:19;;;;;;;;;;;;;;;25.12;41.85;100627.56;4953391;29;20299;-86
2021/06/19 07:03:44;;;;;;;;;;;;;;;25.12;42.05;100639.56;4950482;29;19922;-81
2021/06/19 07:06:10;;;;;;;;;;;;;;;25.26;42.33;100638.94;4953604;29;19922;-81
2021/06/19 07:08:36;;;;;;;;;;;;;;;25.39;42.00;100631.91;4949449;28;19918;-82
2021/06/19 07:11:02;;;;;;;;;;;;;;;25.48;40.04;100628.81;4954204;29;19993;-91
2021/06/19 07:13:28;;;;;;;;;;;;;;;25.51;40.66;100623.25;4952980;29;19926;-88
2021/06/19 07:15:53;;;;;;;;;;;;;;;25.49;40.37;100620.00;4944441;28;19922;-78
2021/06/19 07:18:22;;;;;;;;;;;;;;;25.52;40.36;100633.25;4950389;28;20348;-79
2021/06/19 07:20:47;;;;;;;;;;;;;;;25.59;40.62;100631.72;4952391;29;19932;-89
2021/06/19 07:23:13;;;;;;;;;;;;;;;25.59;40.69;100623.31;4952569;29;19970;-91
2021/06/19 07:25:39;;;;;;;;;;;;;;;25.60;39.00;100619.34;4952725;29;19926;-87
2021/06/19 07:28:05;;;;;;;;;;;;;;;25.63;39.54;100625.00;4953186;29;19929;-89
2021/06/19 07:30:30;;;;;;;;;;;;;;;25.65;39.01;100621.78;4947199;29;19929;-79
2021/06/19 07:32:57;;;;;;;;;;;;;;;25.70;41.00;100625.06;4952804;29;19929;-80
2021/06/19 07:35:23;;;;;;;;;;;;;;;25.77;39.39;100618.72;4952668;29;20303;-81
2021/06/19 07:37:49;;;;;;;;;;;;;;;25.81;40.23;100619.59;4952563;29;20390;-80
2021/06/19 07:40:15;;;;;;;;;;;;;;;25.88;39.94;100628.06;4952219;29;19926;-80
2021/06/19 07:42:43;;;;;;;;;;;;;;;25.91;38.44;100621.69;4953160;29;19970;-82
2021/06/19 07:45:09;;;;;;;;;;;;;;;25.98;38.97;100615.34;4952952;29;20088;-88
2021/06/19 07:47:35;;;;;;;;;;;;;;;26.05;39.35;100615.41;4952990;29;19919;-84
2021/06/19 07:50:02;;;;;;;;;;;;;;;26.10;40.12;100614.28;4955216;28;20399;-87
2021/06/19 07:52:28;;;;;;;;;;;;;;;26.21;39.54;100609.53;4938639;29;20399;-88
2021/06/19 07:54:54;;;;;;;;;;;;;;;26.21;39.08;100613.16;4923784;29;20017;-87
2021/06/19 07:57:20;;;;;;;;;;;;;;;26.15;38.31;100609.09;4925291;29;20731;-89
2021/06/19 07:59:46;;;;;;;;;;;;;;;26.25;39.30;100599.16;4930935;29;19926;-89
2021/06/19 08:02:12;;;;;;;;;;;;;;;26.31;39.76;100610.81;4924970;29;19986;-88
2021/06/19 08:04:38;;;;;;;;;;;;;;;26.33;39.26;100598.03;4940664;29;19926;-89
2021/06/19 08:07:06;;;;;;;;;;;;;;;26.43;37.73;100600.13;4922931;29;19929;-88
2021/06/19 08:09:31;;;;;;;;;;;;;;;26.49;38.64;100606.19;4937185;29;19923;-88
2021/06/19 08:11:59;;;;;;;;;;;;;;;26.50;38.85;100601.38;4932357;29;19993;-88
2021/06/19 08:14:24;;;;;;;;;;;;;;;26.49;37.48;100611.81;4956464;29;19922;-88
2021/06/19 08:16:53;;;;;;;;;;;;;;;26.47;37.13;100600.13;4953933;29;20652;-80
2021/06/19 08:19:19;;;;;;;;;;;;;;;26.48;38.00;100605.38;4955384;29;19922;-82
2021/06/19 08:21:45;;;;;;;;;;;;;;;26.56;39.49;100591.41;4954865;29;19926;-80
2021/06/19 08:24:11;;;;;;;;;;;;;;;26.61;38.88;100597.44;4955752;29;19968;-80
2021/06/19 08:26:37;;;;;;;;;;;;;;;26.57;36.76;100593.81;4955259;29;19922;-81
2021/06/19 08:29:03;;;;;;;;;;;;;;;26.65;38.16;100587.03;4955411;29;19922;-91
2021/06/19 08:31:32;;;;;;;;;;;;;;;26.77;38.00;100593.53;4958934;28;19922;-89
2021/06/19 08:33:57;;;;;;;;;;;;;;;26.89;37.40;100582.00;4956385;29;19926;-82
2021/06/19 08:36:23;;;;;;;;;;;;;;;26.89;38.19;100579.97;4956616;29;19922;-89
2021/06/19 08:38:49;;;;;;;;;;;;;;;26.97;37.29;100586.41;4940276;29;19918;-81
2021/06/19 08:41:17;;;;;;;;;;;;;;;27.04;36.79;100571.63;4955436;29;20008;-90
2021/06/19 08:43:43;;;;;;;;;;;;;;;27.13;38.14;100577.72;4950816;29;20064;-82
2021/06/19 08:46:10;;;;;;;;;;;;;;;27.16;37.99;100580.53;4955477;29;20013;-81
2021/06/19 08:48:38;;;;;;;;;;;;;;;27.10;34.98;100578.47;4956188;29;20393;-90
2021/06/19 08:51:06;;;;;;;;;;;;;;;27.06;35.78;100569.22;4946802;29;20021;-81
2021/06/19 08:53:33;;;;;;;;;;;;;;;27.04;36.34;100566.81;4956785;29;20021;-90
2021/06/19 08:55:59;;;;;;;;;;;;;;;27.12;37.57;100565.66;4939913;29;19929;-82
2021/06/19 08:58:25;;;;;;;;;;;;;;;27.28;37.96;100559.69;4961965;29;19922;-83
2021/06/19 09:00:52;;;;;;;;;;;;;;;27.48;37.51;100557.34;4953409;28;20022;-80
2021/06/19 09:03:22;;;;;;;;;;;;;;;27.59;36.65;100558.16;4955228;28;19926;-85
2021/06/19 09:05:48;;;;;;;;;;;;;;;27.66;36.66;100562.19;4952910;29;20404;-82
2021/06/19 09:08:15;;;;;;;;;;;;;;;27.79;36.42;100560.63;4931418;29;19922;-82
2021/06/19 09:10:42;;;;;;;;;;;;;;;27.82;36.38;100549.41;4938859;29;20031;-84
2021/06/19 09:13:18;;;;;;;;;;;;;;;27.90;36.46;100560.63;4920812;29;19934;-85
2021/06/19 09:15:47;;;;;;;;;;;;;;;27.92;36.48;100547.00;4952924;29;19985;-85
2021/06/19 09:18:25;;;;;;;;;;;;;;;27.93;35.55;100549.41;4933281;29;19922;-84
2021/06/19 09:21:02;;;;;;;;;;;;;;;27.97;36.47;100546.59;4954188;28;19922;-84
2021/06/19 09:23:35;;;;;;;;;;;;;;;27.99;36.45;100541.38;4939161;29;20024;-84
2021/06/19 09:26:07;;;;;;;;;;;;;;;27.94;35.69;100545.38;4952406;29;19923;-89
2021/06/19 09:28:53;;;;;;;;;;;;;;;28.04;36.76;100541.75;4952568;28;19928;-84
2021/06/19 09:31:34;;;;;;;;;;;;;;;28.11;35.95;100538.13;4950008;29;19961;-84
2021/06/19 09:34:02;;;;;;;;;;;;;;;28.20;36.29;100534.91;4938254;29;19969;-81
2021/06/19 09:36:40;;;;;;;;;;;;;;;28.21;35.94;100540.16;4931756;29;19926;-83
2021/06/19 09:39:08;;;;;;;;;;;;;;;28.26;36.38;100536.91;4947358;29;19929;-87
2021/06/19 09:41:34;;;;;;;;;;;;;;;28.34;36.34;100534.88;4951677;29;19928;-91
2021/06/19 09:44:00;;;;;;;;;;;;;;;28.36;36.67;100535.28;4952159;28;20419;-87
2021/06/19 09:46:26;;;;;;;;;;;;;;;28.39;35.97;100533.69;4950873;29;19997;-82
2021/06/19 09:48:52;;;;;;;;;;;;;;;28.42;36.24;100535.72;4941717;29;19922;-92
2021/06/19 09:51:18;;;;;;;;;;;;;;;28.42;35.91;100535.72;4937403;29;20077;-90
2021/06/19 09:53:46;;;;;;;;;;;;;;;28.49;34.96;100538.50;4950065;29;19934;-84
2021/06/19 09:56:13;;;;;;;;;;;;;;;28.55;36.53;100540.50;4948409;29;20388;-82
2021/06/19 09:58:40;;;;;;;;;;;;;;;28.63;35.86;100534.84;4933025;29;19949;-84
2021/06/19 10:01:06;;;;;;;;;;;;;;;28.62;35.47;100531.25;4934507;29;19926;-85
2021/06/19 10:03:51;;;;;;;;;;;;;;;28.65;35.87;100522.00;4934191;29;19932;-83
2021/06/19 10:06:18;;;;;;;;;;;;;;;28.62;35.16;100524.81;4947657;29;20449;-82
2021/06/19 10:08:48;;;;;;;;;;;;;;;28.65;33.20;100532.44;4948910;29;20123;-83
2021/06/19 10:11:14;;;;;;;;;;;;;;;28.61;34.33;100515.56;4944717;29;20033;-81
2021/06/19 10:13:40;;;;;;;;;;;;;;;28.64;33.64;100516.75;4938527;29;19992;-83
2021/06/19 10:16:06;;;;;;;;;;;;;;;28.63;32.51;100515.16;4946145;29;19922;-86
2021/06/19 10:18:32;;;;;;;;;;;;;;;28.68;34.15;100514.75;4948269;29;20343;-83
2021/06/19 10:21:00;;;;;;;;;;;;;;;28.74;33.12;100519.56;4946844;29;19923;-81
2021/06/19 10:23:25;;;;;;;;;;;;;;;28.75;31.39;100518.34;4947396;29;19969;-81
2021/06/19 10:25:53;;;;;;;;;;;;;;;28.76;32.34;100508.66;4924565;29;20418;-84
2021/06/19 10:28:19;;;;;;;;;;;;;;;28.79;32.53;100501.44;4940695;29;19926;-86
2021/06/19 10:30:46;;;;;;;;;;;;;;;28.84;31.50;100498.19;4941871;29;19923;-81
2021/06/19 10:33:29;;;;;;;;;;;;;;;28.89;31.98;100500.56;4946721;29;20387;-82
2021/06/19 10:35:57;;;;;;;;;;;;;;;28.97;32.45;100495.69;4945420;29;19945;-84
2021/06/19 10:38:23;;;;;;;;;;;;;;;28.96;31.76;100497.72;4945211;29;19922;-81
2021/06/19 10:40:59;;;;;;;;;;;;;;;28.89;31.88;100494.16;4941743;29;19941;-85
2021/06/19 10:43:27;;;;;;;;;;;;;;;28.82;31.83;100497.81;4944384;28;19918;-83
2021/06/19 10:45:59;;;;;;;;;;;;;;;28.89;30.50;100485.72;4943840;28;19922;-86
2021/06/19 10:48:31;;;;;;;;;;;;;;;29.01;32.22;100494.53;4944501;29;19926;-81
2021/06/19 10:51:19;;;;;;;;;;;;;;;29.14;31.11;100491.22;4937559;28;20396;-84
2021/06/19 10:54:03;;;;;;;;;;;;;;;29.18;31.59;100486.38;4928993;29;19993;-81
2021/06/19 10:56:43;;;;;;;;;;;;;;;29.24;31.19;100484.75;4945507;29;20025;-82
2021/06/19 10:59:22;;;;;;;;;;;;;;;29.24;31.58;100479.09;4926296;29;19933;-84
2021/06/19 11:01:50;;;;;;;;;;;;;;;29.29;30.98;100480.69;4933005;29;19922;-82
2021/06/19 11:04:34;;;;;;;;;;;;;;;29.32;30.72;100474.22;4939298;29;20328;-85
2021/06/19 11:07:02;;;;;;;;;;;;;;;29.38;30.73;100472.56;4945178;28;20455;-84
2021/06/19 11:09:36;;;;;;;;;;;;;;;29.42;30.58;100476.94;4943404;29;20304;-80
2021/06/19 11:12:04;;;;;;;;;;;;;;;29.56;30.63;100478.84;4940300;29;19926;-85
2021/06/19 11:14:40;;;;;;;;;;;;;;;29.57;30.45;100472.03;4922637;29;19922;-82
2021/06/19 11:17:07;;;;;;;;;;;;;;;29.62;30.34;100468.78;4942301;29;20189;-85
2021/06/19 11:19:55;;;;;;;;;;;;;;;29.66;30.52;100461.09;4926590;29;19929;-82
2021/06/19 11:22:24;;;;;;;;;;;;;;;29.73;30.36;100463.88;4940462;29;20528;-84
2021/06/19 11:25:09;;;;;;;;;;;;;;;29.73;30.58;100460.22;4941082;28;20406;-88
2021/06/19 11:27:49;;;;;;;;;;;;;;;29.79;30.29;100452.91;4924044;28;20017;-89
2021/06/19 11:30:35;;;;;;;;;;;;;;;29.84;30.68;100451.69;4902773;29;19926;-85
2021/06/19 11:33:24;;;;;;;;;;;;;;;29.90;30.98;100445.19;4923211;29;20267;-80
2021/06/19 11:35:56;;;;;;;;;;;;;;;29.94;30.79;100445.94;4952901;28;20501;-82
2021/06/19 11:38:23;;;;;;;;;;;;;;;29.91;29.78;100441.13;4953332;29;19969;-83
2021/06/19 11:40:49;;;;;;;;;;;;;;;29.98;30.05;100440.25;4952834;29;19922;-85
2021/06/19 11:43:29;;;;;;;;;;;;;;;30.05;30.49;100440.19;4952932;29;19922;-85
2021/06/19 11:45:58;;;;;;;;;;;;;;;30.07;30.77;100449.03;4953382;29;20007;-87
2021/06/19 11:48:24;;;;;;;;;;;;;;;30.04;31.20;100435.78;4953494;29;19969;-84
2021/06/19 11:50:50;;;;;;;;;;;;;;;30.07;30.02;100434.13;4953597;29;19961;-83
2021/06/19 11:53:26;;;;;;;;;;;;;;;30.07;30.95;100429.28;4953198;29;19969;-82
2021/06/19 11:55:52;;;;;;;;;;;;;;;30.06;30.96;100424.84;4953919;29;19922;-90
2021/06/19 11:58:17;;;;;;;;;;;;;;;30.17;30.82;100430.41;4954060;29;19922;-78
2021/06/19 12:00:53;;;;;;;;;;;;;;;30.31;31.25;100416.16;4972449;28;20330;-77
2021/06/19 12:03:21;;;;;;;;;;;;;;;30.38;30.87;100418.88;4955022;28;19925;-86
2021/06/19 12:05:47;;;;;;;;;;;;;;;30.39;30.35;100420.47;4952866;28;19930;-82
2021/06/19 12:08:13;;;;;;;;;;;;;;;30.33;30.90;100415.72;4953562;29;19923;-79
2021/06/19 12:10:39;;;;;;;;;;;;;;;30.36;30.99;100410.03;4953263;28;20029;-79
2021/06/19 12:13:07;;;;;;;;;;;;;;;30.40;30.85;100407.97;4953441;29;20018;-78
2021/06/19 12:15:33;;;;;;;;;;;;;;;30.41;30.61;100403.94;4936262;29;19923;-78
2021/06/19 12:18:01;;;;;;;;;;;;;;;30.39;30.01;100405.56;4952094;29;19970;-77
2021/06/19 12:20:27;;;;;;;;;;;;;;;30.39;30.16;100399.91;4953042;29;20327;-78
2021/06/19 12:22:54;;;;;;;;;;;;;;;30.49;30.58;100401.81;4953571;29;19922;-76
2021/06/19 12:25:31;;;;;;;;;;;;;;;30.57;30.67;100402.53;4953308;29;19922;-87
2021/06/19 12:27:58;;;;;;;;;;;;;;;30.61;29.54;100395.59;4951487;29;20292;-78
2021/06/19 12:30:24;;;;;;;;;;;;;;;30.71;30.69;100402.31;4953360;29;19978;-77
2021/06/19 12:32:49;;;;;;;;;;;;;;;30.57;29.56;100408.16;4953267;29;19926;-78
2021/06/19 12:35:17;;;;;;;;;;;;;;;30.62;28.51;100397.19;4953743;28;19922;-76
2021/06/19 12:37:54;;;;;;;;;;;;;;;30.70;28.59;100397.13;4956858;28;20325;-76
2021/06/19 12:40:24;;;;;;;;;;;;;;;30.73;29.16;100397.06;4956685;29;19922;-79
2021/06/19 12:42:53;;;;;;;;;;;;;;;30.76;29.36;100403.84;4939998;29;20024;-83
2021/06/19 12:45:22;;;;;;;;;;;;;;;30.75;29.79;100399.44;4956842;29;19945;-89
2021/06/19 12:47:49;;;;;;;;;;;;;;;30.77;29.56;100391.41;4923627;29;20384;-83
2021/06/19 12:50:31;;;;;;;;;;;;;;;30.84;29.24;100392.09;4958101;29;19930;-83
2021/06/19 12:53:01;;;;;;;;;;;;;;;30.92;28.96;100387.13;4957120;29;20033;-82
2021/06/19 12:55:29;;;;;;;;;;;;;;;31.01;29.76;100395.06;4957577;29;20288;-82